Athens, Pennsylvania
Current Conditions -  °F | °C
As of 10:53 PM on Tuesday 25 Nov 2014 (Local Time) from KELM Reporting Station
Clear Clear  
Wind Chill: 32°   Ceiling: Unl
Heat Index: 37°   Visibility: 10mi
Dew Point: 26°   Wind: 6mph
Humidity: 65%   Direction: 310°NW
Pressure: 30.16"   Gusts: NA
Location:  41.96°N, 76.52°W
Report Text: KELM 260353Z AUTO 31005KT 10SM CLR 03/M03 A3016 RMK AO2 SLP218 T00281033
Loading
Personal Weather Stations






























Interactive Weather Map New forecast layout! Learn more

10-Day Weather Forecast

Advertisements
Track Severe Weather on mobile